createdAt,value
2019-03-19T00:00:26.665Z,99787.55
2019-03-19T00:02:56.302Z,99795.54
2019-03-19T00:05:26.114Z,99795.59
2019-03-19T00:07:55.704Z,99793.42
2019-03-19T00:10:25.348Z,99801.85
2019-03-19T00:12:54.989Z,99806.06
2019-03-19T00:15:24.628Z,99803.54
2019-03-19T00:17:54.268Z,99805.28
2019-03-19T00:20:24.035Z,99806.88
2019-03-19T00:22:53.682Z,99816.82
2019-03-19T00:25:29.848Z,99817.91
2019-03-19T00:27:54.761Z,99826.47
2019-03-19T00:30:24.404Z,99829.75
2019-03-19T00:32:54.043Z,99827.76
2019-03-19T00:35:23.685Z,99826.52
2019-03-19T00:37:53.453Z,99827.51
2019-03-19T00:40:23.090Z,99828.13
2019-03-19T00:42:52.728Z,99832.25
2019-03-19T00:45:22.373Z,99827.09
2019-03-19T00:47:52.010Z,99823.80
2019-03-19T00:50:21.778Z,99828.48
2019-03-19T00:52:51.415Z,99823.55
2019-03-19T00:55:21.062Z,99825.56
2019-03-19T00:57:50.699Z,99825.69
2019-03-19T01:00:21.175Z,99822.27
2019-03-19T01:02:50.941Z,99825.77
2019-03-19T01:05:20.578Z,99828.00
2019-03-19T01:07:50.220Z,99825.34
2019-03-19T01:10:19.864Z,99828.45
2019-03-19T01:12:49.508Z,99832.11
2019-03-19T01:15:19.153Z,99835.30
2019-03-19T01:17:48.792Z,99831.84
2019-03-19T01:20:18.606Z,99831.55
2019-03-19T01:22:48.311Z,99837.77
2019-03-19T01:25:18.828Z,99836.10
2019-03-19T01:27:48.677Z,99836.52
2019-03-19T01:30:18.570Z,99840.02
2019-03-19T01:32:48.204Z,99833.94
2019-03-19T01:35:17.960Z,99842.02
2019-03-19T01:37:47.611Z,99842.74
2019-03-19T01:40:17.248Z,99843.80
2019-03-19T01:42:46.883Z,99839.74
2019-03-19T01:45:16.536Z,99844.13
2019-03-19T01:47:46.301Z,99842.31
2019-03-19T01:50:16.649Z,99837.38
2019-03-19T01:52:46.302Z,99838.19
2019-03-19T01:55:18.939Z,99840.87
2019-03-19T01:57:48.697Z,99836.93
2019-03-19T02:00:19.655Z,99844.09
2019-03-19T02:02:49.297Z,99842.39
2019-03-19T02:05:19.060Z,99843.34
2019-03-19T02:07:48.704Z,99843.34
2019-03-19T02:10:18.344Z,99840.83
2019-03-19T02:12:47.986Z,99846.97
2019-03-19T02:15:18.711Z,99855.43
2019-03-19T02:17:48.351Z,99856.76
2019-03-19T02:20:19.312Z,99856.27
2019-03-19T02:22:49.071Z,99849.80
2019-03-19T02:25:18.713Z,99848.66
2019-03-19T02:27:48.355Z,99854.31
2019-03-19T02:30:18.343Z,99853.41
2019-03-19T02:32:48.116Z,99861.83
2019-03-19T02:35:17.776Z,99862.70
2019-03-19T02:37:47.414Z,99862.36
2019-03-19T03:09:29.610Z,99871.55
2019-03-19T03:11:58.949Z,99883.13
2019-03-19T03:14:28.307Z,99890.61
2019-03-19T03:16:57.653Z,99885.02
2019-03-19T03:19:27.021Z,99886.27
2019-03-19T03:21:56.425Z,99887.50
2019-03-19T03:24:25.765Z,99884.69
2019-03-19T03:26:55.122Z,99885.52
2019-03-19T03:29:24.522Z,99882.84
2019-03-19T03:31:53.928Z,99881.06
2019-03-19T03:34:23.332Z,99893.42
2019-03-19T03:36:52.751Z,99894.33
2019-03-19T03:39:22.108Z,99891.61
2019-03-19T03:41:51.466Z,99889.34
2019-03-19T03:44:20.818Z,99897.69
2019-03-19T03:46:50.221Z,99897.45
2019-03-19T03:49:19.561Z,99905.97
2019-03-19T03:51:48.915Z,99912.29
2019-03-19T03:54:18.270Z,99909.34
2019-03-19T03:57:00.892Z,99916.79
2019-03-19T03:59:18.694Z,99920.28
2019-03-19T04:01:48.043Z,99921.61
2019-03-19T04:04:17.396Z,99921.64
2019-03-19T04:06:46.730Z,99917.70
2019-03-19T04:09:16.107Z,99914.10
2019-03-19T04:11:45.454Z,99916.82
2019-03-19T04:14:14.787Z,99924.46
2019-03-19T04:16:44.138Z,99925.88
2019-03-19T04:19:13.480Z,99928.12
2019-03-19T04:21:42.847Z,99932.81
2019-03-19T04:24:12.187Z,99937.28
2019-03-19T04:26:41.514Z,99939.09
2019-03-19T04:29:10.880Z,99935.98
2019-03-19T04:31:40.213Z,99942.09
2019-03-19T04:34:09.568Z,99943.59
2019-03-19T04:36:38.906Z,99952.88
2019-03-19T04:39:08.432Z,99948.92
2019-03-19T04:41:37.772Z,99958.19
2019-03-19T04:44:07.884Z,99965.78
2019-03-19T04:46:37.235Z,99977.23
2019-03-19T04:49:06.580Z,99975.16
2019-03-19T04:51:35.953Z,99975.22
2019-03-19T04:54:05.288Z,99977.03
2019-03-19T04:56:34.622Z,99976.91
2019-03-19T04:59:03.994Z,99980.02
2019-03-19T05:01:33.325Z,99981.56
2019-03-19T05:04:02.706Z,99981.11
2019-03-19T05:06:32.037Z,99986.77
2019-03-19T05:09:01.392Z,99979.33
2019-03-19T05:11:30.746Z,99989.88
2019-03-19T05:14:00.090Z,99990.30
2019-03-19T05:16:29.452Z,99990.03
2019-03-19T05:18:58.786Z,99997.11
2019-03-19T05:21:28.117Z,99998.50
2019-03-19T05:23:57.472Z,100002.57
2019-03-19T05:26:26.809Z,99995.81
2019-03-19T05:28:56.181Z,99990.94
2019-03-19T05:31:25.550Z,99997.11
2019-03-19T05:33:54.893Z,100001.15
2019-03-19T05:36:24.312Z,100010.41
2019-03-19T05:38:53.647Z,100014.48
2019-03-19T05:41:23.070Z,100014.48
2019-03-19T05:43:52.410Z,100016.34
2019-03-19T05:46:22.717Z,100019.93
2019-03-19T05:48:52.064Z,100022.16
2019-03-19T05:51:21.404Z,100014.23
2019-03-19T05:53:50.772Z,100026.61
2019-03-19T05:56:20.111Z,100027.48
2019-03-19T05:58:49.488Z,100034.88
2019-03-19T06:01:18.837Z,100033.53
2019-03-19T06:03:48.179Z,100035.00
2019-03-19T06:06:17.630Z,100038.95
2019-03-19T06:08:46.958Z,100040.33
2019-03-19T06:11:16.323Z,100046.06
2019-03-19T06:13:45.661Z,100042.95
2019-03-19T06:16:15.012Z,100044.70
2019-03-19T06:18:44.377Z,100038.44
2019-03-19T06:21:13.716Z,100043.16
2019-03-19T06:23:43.096Z,100048.55
2019-03-19T06:26:12.450Z,100049.41
2019-03-19T06:28:41.830Z,100052.78
2019-03-19T06:31:11.176Z,100059.16
2019-03-19T06:33:40.520Z,100063.03
2019-03-19T06:36:09.902Z,100066.14
2019-03-19T06:38:39.246Z,100066.72
2019-03-19T06:41:08.614Z,100076.46
2019-03-19T06:43:37.968Z,100076.19
2019-03-19T06:46:07.323Z,100079.41
2019-03-19T06:48:36.741Z,100086.38
2019-03-19T06:51:06.081Z,100086.76
2019-03-19T06:53:35.464Z,100088.02
2019-03-19T06:56:04.814Z,100090.41
2019-03-19T06:58:34.159Z,100083.36
2019-03-19T07:01:03.529Z,100091.14
2019-03-19T07:03:32.933Z,100088.56
2019-03-19T07:06:02.323Z,100083.23
2019-03-19T07:08:31.673Z,100079.66
2019-03-19T07:11:01.055Z,100086.81
2019-03-19T07:13:30.435Z,100097.80
2019-03-19T07:15:59.811Z,100100.51
2019-03-19T07:18:29.182Z,100109.18
2019-03-19T07:20:58.593Z,100108.77
2019-03-19T07:23:27.932Z,100118.84
2019-03-19T07:25:57.305Z,100116.52
2019-03-19T07:28:26.650Z,100117.31
2019-03-19T07:30:56.023Z,100124.59
2019-03-19T07:33:25.359Z,100128.34
2019-03-19T07:35:54.740Z,100129.91
2019-03-19T07:38:24.095Z,100131.50
2019-03-19T07:40:53.436Z,100142.75
2019-03-19T07:43:22.817Z,100143.81
2019-03-19T07:45:52.166Z,100145.77
2019-03-19T07:48:21.562Z,100149.91
2019-03-19T07:50:50.886Z,100151.33
2019-03-19T07:53:20.242Z,100144.38
2019-03-19T07:55:49.600Z,100154.38
2019-03-19T07:58:18.939Z,100155.80
2019-03-19T08:00:48.459Z,100154.05
2019-03-19T08:03:17.830Z,100154.41
2019-03-19T08:05:47.169Z,100154.45
2019-03-19T08:08:16.545Z,100155.16
2019-03-19T08:10:45.876Z,100153.02
2019-03-19T08:13:15.261Z,100163.84
2019-03-19T08:15:44.615Z,100161.60
2019-03-19T08:18:13.970Z,100163.83
2019-03-19T08:20:43.345Z,100167.42
2019-03-19T08:23:12.694Z,100171.61
2019-03-19T08:25:42.067Z,100175.95
2019-03-19T08:28:11.414Z,100174.97
2019-03-19T08:30:40.748Z,100176.76
2019-03-19T08:33:10.141Z,100180.06
2019-03-19T08:35:39.482Z,100182.48
2019-03-19T08:38:08.861Z,100181.58
2019-03-19T08:40:38.207Z,100182.67
2019-03-19T08:43:07.573Z,100182.50
2019-03-19T08:45:36.921Z,100186.83
2019-03-19T08:48:06.265Z,100190.79
2019-03-19T08:50:35.631Z,100195.74
2019-03-19T08:53:04.976Z,100188.02
2019-03-19T08:55:34.325Z,100193.27
2019-03-19T08:58:03.689Z,100190.13
2019-03-19T09:00:33.037Z,100201.58
2019-03-19T09:03:02.403Z,100206.39
2019-03-19T09:05:31.747Z,100209.00
2019-03-19T09:08:01.094Z,100207.30
2019-03-19T09:10:30.457Z,100212.53
2019-03-19T09:12:59.798Z,100207.22
2019-03-19T09:15:30.206Z,100208.56
2019-03-19T09:17:59.575Z,100203.70
2019-03-19T09:20:28.977Z,100203.70
2019-03-19T09:22:58.320Z,100203.88
2019-03-19T09:25:27.665Z,100199.17
2019-03-19T09:27:57.028Z,100201.97
2019-03-19T09:30:26.555Z,100199.06
2019-03-19T09:32:55.919Z,100195.97
2019-03-19T09:35:26.442Z,100187.47
2019-03-19T09:37:58.764Z,100191.83
2019-03-19T09:40:27.067Z,100195.84
2019-03-19T09:42:56.422Z,100198.27
2019-03-19T09:45:25.853Z,100191.83
2019-03-19T09:47:55.205Z,100195.08
2019-03-19T09:50:26.388Z,100192.18
2019-03-19T09:52:55.726Z,100196.93
2019-03-19T09:55:25.069Z,100202.47
2019-03-19T09:57:54.419Z,100202.61
2019-03-19T10:00:24.400Z,100199.69
2019-03-19T10:02:53.952Z,100197.70
2019-03-19T10:05:23.322Z,100200.73
2019-03-19T10:07:52.651Z,100201.09
2019-03-19T10:10:23.557Z,100191.19
2019-03-19T10:12:52.946Z,100190.31
2019-03-19T10:15:22.294Z,100193.33
2019-03-19T10:17:51.648Z,100195.30
2019-03-19T10:20:26.040Z,100192.60
2019-03-19T10:22:55.410Z,100186.47
2019-03-19T10:25:24.753Z,100196.78
2019-03-19T10:27:54.108Z,100198.73
2019-03-19T10:30:26.452Z,100200.56
2019-03-19T10:32:55.799Z,100200.63
2019-03-19T10:35:25.183Z,100200.67
2019-03-19T10:37:54.523Z,100197.73
2019-03-19T10:40:23.867Z,100206.59
2019-03-19T10:42:53.243Z,100201.97
2019-03-19T10:45:24.861Z,100210.04
2019-03-19T10:47:54.234Z,100203.23
2019-03-19T10:50:26.467Z,100205.04
2019-03-19T10:52:55.126Z,100205.12
2019-03-19T10:55:24.513Z,100211.70
2019-03-19T10:57:53.923Z,100212.73
2019-03-19T11:00:25.935Z,100214.00
2019-03-19T11:02:55.289Z,100211.16
2019-03-19T11:05:25.721Z,100215.17
2019-03-19T11:07:55.140Z,100212.11
2019-03-19T11:10:24.496Z,100206.37
2019-03-19T11:12:53.836Z,100212.48
2019-03-19T11:15:26.159Z,100206.74
2019-03-19T11:17:55.576Z,100208.80
2019-03-19T11:20:24.997Z,100213.67
2019-03-19T11:22:54.367Z,100228.56
2019-03-19T11:25:28.505Z,100218.90
2019-03-19T11:27:57.880Z,100217.63
2019-03-19T11:30:32.804Z,100219.83
2019-03-19T11:33:02.153Z,100223.00
2019-03-19T11:35:31.593Z,100220.08
2019-03-19T11:38:00.974Z,100223.56
2019-03-19T11:40:30.391Z,100217.02
2019-03-19T11:42:59.771Z,100214.96
2019-03-19T11:45:29.136Z,100225.41
2019-03-19T11:47:58.504Z,100224.39
2019-03-19T11:50:33.394Z,100218.64
2019-03-19T11:53:03.095Z,100220.37
2019-03-19T11:55:32.447Z,100219.80
2019-03-19T11:58:01.842Z,100214.41
2019-03-19T12:00:33.852Z,100216.00
2019-03-19T12:03:12.692Z,100214.07
2019-03-19T12:05:34.273Z,100224.88
2019-03-19T12:08:03.643Z,100221.39
2019-03-19T12:10:33.045Z,100223.03
2019-03-19T12:13:02.369Z,100223.47
2019-03-19T12:15:31.800Z,100226.66
2019-03-19T12:18:01.160Z,100227.25
2019-03-19T12:20:30.592Z,100225.89
2019-03-19T12:22:59.978Z,100223.59
2019-03-19T12:25:31.173Z,100228.64
2019-03-19T12:28:00.391Z,100223.98
2019-03-19T12:30:29.761Z,100219.42
2019-03-19T12:32:59.123Z,100214.36
2019-03-19T12:35:30.646Z,100207.16
2019-03-19T12:37:59.583Z,100205.06
2019-03-19T12:40:36.949Z,100209.18
2019-03-19T12:43:00.039Z,100210.55
2019-03-19T12:45:29.386Z,100214.88
2019-03-19T12:47:58.777Z,100210.01
2019-03-19T12:50:28.183Z,100209.02
2019-03-19T12:52:57.530Z,100210.91
2019-03-19T12:55:26.891Z,100203.22
2019-03-19T12:57:56.259Z,100203.69
2019-03-19T13:00:34.515Z,100200.66
2019-03-19T13:03:00.278Z,100194.11
2019-03-19T13:05:29.664Z,100190.17
2019-03-19T13:07:59.003Z,100196.10
2019-03-19T13:10:28.360Z,100198.00
2019-03-19T13:12:57.739Z,100197.69
2019-03-19T13:15:27.081Z,100184.17
2019-03-19T13:17:56.431Z,100187.67
2019-03-19T13:20:25.811Z,100190.35
2019-03-19T13:22:55.145Z,100187.91
2019-03-19T13:25:26.659Z,100194.75
2019-03-19T13:27:56.017Z,100189.21
2019-03-19T13:30:44.051Z,100189.31
2019-03-19T13:33:04.005Z,100184.42
2019-03-19T13:35:33.349Z,100180.91
2019-03-19T13:38:02.697Z,100176.05
2019-03-19T13:40:32.089Z,100176.61
2019-03-19T13:43:01.441Z,100177.86
2019-03-19T13:45:30.821Z,100171.25
2019-03-19T13:48:00.159Z,100172.98
2019-03-19T13:50:29.517Z,100167.45
2019-03-19T13:52:58.900Z,100167.70
2019-03-19T13:55:28.251Z,100165.72
2019-03-19T13:57:57.606Z,100172.79
2019-03-19T14:00:26.983Z,100172.66
2019-03-19T14:02:56.340Z,100165.59
2019-03-19T14:05:26.549Z,100173.74
2019-03-19T14:07:55.928Z,100176.00
2019-03-19T14:10:25.280Z,100167.85
2019-03-19T14:12:54.651Z,100182.39
2019-03-19T14:15:28.251Z,100185.73
2019-03-19T14:17:57.607Z,100182.73
2019-03-19T14:20:26.962Z,100189.31
2019-03-19T14:22:56.326Z,100192.55
2019-03-19T14:25:25.703Z,100186.16
2019-03-19T14:27:55.036Z,100192.84
2019-03-19T14:30:27.114Z,100186.78
2019-03-19T14:32:55.777Z,100186.68
2019-03-19T14:35:25.163Z,100191.77
2019-03-19T14:37:54.509Z,100188.10
2019-03-19T14:40:26.361Z,100181.86
2019-03-19T14:42:58.048Z,100180.52
2019-03-19T14:45:26.865Z,100186.11
2019-03-19T14:47:56.239Z,100187.41
2019-03-19T14:50:26.689Z,100184.16
2019-03-19T14:52:56.060Z,100185.75
2019-03-19T14:55:25.411Z,100185.53
2019-03-19T14:57:54.746Z,100190.13
2019-03-19T15:00:24.377Z,100198.09
2019-03-19T15:02:53.719Z,100190.80
2019-03-19T15:05:23.073Z,100196.60
2019-03-19T15:07:52.451Z,100198.48
2019-03-19T15:10:25.031Z,100203.73
2019-03-19T15:12:54.406Z,100203.84
2019-03-19T15:15:23.903Z,100211.59
2019-03-19T15:17:53.255Z,100209.83
2019-03-19T15:20:27.980Z,100198.75
2019-03-19T15:22:57.324Z,100203.57
2019-03-19T15:25:26.683Z,100197.73
2019-03-19T15:27:56.038Z,100199.96
2019-03-19T15:30:25.452Z,100206.59
2019-03-19T15:32:54.783Z,100204.78
2019-03-19T15:35:24.157Z,100205.56
2019-03-19T15:37:53.493Z,100197.51
2019-03-19T15:40:22.884Z,100194.95
2019-03-19T15:42:52.232Z,100193.22
2019-03-19T15:45:28.845Z,100192.73
2019-03-19T15:47:58.243Z,100196.14
2019-03-19T15:50:27.637Z,100190.77
2019-03-19T15:52:56.970Z,100192.68
2019-03-19T15:55:26.409Z,100185.98
2019-03-19T15:57:55.773Z,100189.72
2019-03-19T16:00:25.190Z,100196.82
2019-03-19T16:02:54.548Z,100204.02
2019-03-19T16:05:23.948Z,100192.67
2019-03-19T16:07:53.289Z,100185.89
2019-03-19T16:10:22.673Z,100195.62
2019-03-19T16:12:52.035Z,100202.97
2019-03-19T16:15:23.135Z,100201.94
2019-03-19T16:17:52.478Z,100200.98
2019-03-19T16:20:22.843Z,100198.88
2019-03-19T16:22:52.197Z,100197.70
2019-03-19T16:25:21.560Z,100205.16
2019-03-19T16:27:50.945Z,100205.44
2019-03-19T16:30:22.962Z,100210.30
2019-03-19T16:32:52.321Z,100201.64
2019-03-19T16:35:21.711Z,100206.20
2019-03-19T16:37:51.051Z,100213.27
2019-03-19T16:40:21.513Z,100209.87
2019-03-19T16:42:50.889Z,100216.80
2019-03-19T16:45:20.229Z,100217.22
2019-03-19T16:47:49.596Z,100217.15
2019-03-19T16:50:23.024Z,100219.31
2019-03-19T16:52:52.382Z,100221.52
2019-03-19T16:55:24.687Z,100221.34
2019-03-19T16:57:54.064Z,100224.82
2019-03-19T17:00:26.376Z,100232.21
2019-03-19T17:02:55.739Z,100233.95
2019-03-19T17:05:25.091Z,100225.45
2019-03-19T17:07:54.449Z,100227.34
2019-03-19T17:10:31.632Z,100236.39
2019-03-19T17:13:00.973Z,100236.81
2019-03-19T17:15:30.430Z,100240.62
2019-03-19T17:17:59.765Z,100249.05
2019-03-19T17:20:29.186Z,100249.45
2019-03-19T17:22:58.621Z,100255.41
2019-03-19T17:25:28.331Z,100256.89
2019-03-19T17:27:57.692Z,100262.67
2019-03-19T17:30:31.266Z,100260.53
2019-03-19T17:33:00.630Z,100265.06
2019-03-19T17:35:30.053Z,100273.77
2019-03-19T17:37:59.434Z,100273.34
2019-03-19T17:40:28.821Z,100276.39
2019-03-19T17:42:58.179Z,100281.20
2019-03-19T17:45:27.528Z,100282.58
2019-03-19T17:47:56.893Z,100284.78
2019-03-19T17:50:36.534Z,100287.77
2019-03-19T17:53:06.460Z,100297.02
2019-03-19T17:55:35.799Z,100290.88
2019-03-19T17:58:05.311Z,100293.81
2019-03-19T18:00:44.756Z,100303.28
2019-03-19T18:03:14.089Z,100302.42
2019-03-19T18:05:43.458Z,100308.09
2019-03-19T18:08:12.795Z,100304.92
2019-03-19T18:10:42.125Z,100308.80
2019-03-19T18:13:11.496Z,100306.13
2019-03-19T18:15:40.832Z,100310.55
2019-03-19T18:18:10.226Z,100307.23
2019-03-19T18:20:39.542Z,100310.94
2019-03-19T18:23:08.877Z,100314.00
2019-03-19T18:25:38.251Z,100307.30
2019-03-19T18:28:07.588Z,100313.64
2019-03-19T18:30:36.975Z,100308.91
2019-03-19T18:33:06.470Z,100319.08
2019-03-19T18:35:35.798Z,100314.81
2019-03-19T18:38:05.172Z,100315.35
2019-03-19T18:40:34.530Z,100328.97
2019-03-19T18:43:03.876Z,100323.77
2019-03-19T18:45:33.226Z,100331.81
2019-03-19T18:48:02.582Z,100334.39
2019-03-19T18:50:31.906Z,100338.70
2019-03-19T18:53:01.252Z,100346.63
2019-03-19T18:55:30.621Z,100340.55
2019-03-19T18:57:59.969Z,100345.05
2019-03-19T19:00:29.354Z,100345.39
2019-03-19T19:02:58.684Z,100352.97
2019-03-19T19:05:28.028Z,100356.02
2019-03-19T19:07:57.390Z,100352.14
2019-03-19T19:10:26.741Z,100356.84
2019-03-19T19:12:56.066Z,100351.29
2019-03-19T19:15:26.838Z,100354.50
2019-03-19T19:17:56.211Z,100358.52
2019-03-19T19:20:25.552Z,100354.30
2019-03-19T19:22:54.918Z,100355.50
2019-03-19T19:25:28.252Z,100356.11
2019-03-19T19:27:57.626Z,100364.73
2019-03-19T19:30:32.532Z,100361.80
2019-03-19T19:33:02.764Z,100363.34
2019-03-19T19:35:32.566Z,100366.75
2019-03-19T19:38:03.424Z,100372.77
2019-03-19T19:40:33.177Z,100378.19
2019-03-19T19:43:02.620Z,100374.89
2019-03-19T19:45:31.978Z,100370.81
2019-03-19T19:48:01.331Z,100379.92
2019-03-19T19:50:30.666Z,100382.71
2019-03-19T19:53:00.035Z,100387.66
2019-03-19T19:55:29.384Z,100383.89
2019-03-19T19:57:58.738Z,100388.81
2019-03-19T20:00:28.086Z,100393.74
2019-03-19T20:02:57.446Z,100390.16
2019-03-19T20:05:26.849Z,100392.16
2019-03-19T20:07:56.199Z,100394.14
2019-03-19T20:10:27.236Z,100395.31
2019-03-19T20:12:56.620Z,100396.01
2019-03-19T20:15:25.965Z,100390.53
2019-03-19T20:17:55.293Z,100392.11
2019-03-19T20:20:35.172Z,100396.20
2019-03-19T20:23:04.514Z,100398.51
2019-03-19T20:25:33.886Z,100402.30
2019-03-19T20:28:03.224Z,100410.82
2019-03-19T20:30:32.576Z,100413.08
2019-03-19T20:33:01.934Z,100414.27
2019-03-19T20:35:31.265Z,100411.91
2019-03-19T20:38:00.666Z,100409.92
2019-03-19T20:40:30.009Z,100414.06
2019-03-19T20:42:59.358Z,100419.55
2019-03-19T20:45:29.794Z,100420.31
2019-03-19T20:47:59.151Z,100420.81
2019-03-19T20:50:38.328Z,100425.00
2019-03-19T20:53:07.667Z,100431.91
2019-03-19T20:55:37.055Z,100428.11
2019-03-19T20:58:06.580Z,100435.33
2019-03-19T21:00:35.934Z,100427.06
2019-03-19T21:03:05.517Z,100433.83
2019-03-19T21:05:34.878Z,100438.75
2019-03-19T21:08:04.298Z,100441.67
2019-03-19T21:10:35.103Z,100458.86
2019-03-19T21:13:04.724Z,100459.36
2019-03-19T21:15:34.368Z,100455.17
2019-03-19T21:18:03.995Z,100455.30
2019-03-19T21:20:33.617Z,100456.67
2019-03-19T21:23:03.263Z,100455.80
2019-03-19T21:25:32.879Z,100462.17
2019-03-19T21:28:13.264Z,100462.20
2019-03-19T21:30:33.862Z,100463.70
2019-03-19T21:33:03.491Z,100466.48
2019-03-19T21:35:33.120Z,100467.02
2019-03-19T21:38:02.735Z,100469.69
2019-03-19T21:40:32.368Z,100469.80
2019-03-19T21:43:01.996Z,100469.47
2019-03-19T21:45:31.620Z,100467.90
2019-03-19T21:48:01.249Z,100468.05
2019-03-19T21:50:30.886Z,100465.50
2019-03-19T21:53:00.396Z,100468.09
2019-03-19T21:55:30.012Z,100465.42
2019-03-19T21:57:59.582Z,100469.39
2019-03-19T22:00:29.192Z,100470.68
2019-03-19T22:02:58.808Z,100468.16
2019-03-19T22:05:28.462Z,100465.64
2019-03-19T22:07:58.081Z,100466.63
2019-03-19T22:10:27.695Z,100464.80
2019-03-19T22:12:57.341Z,100472.08
2019-03-19T22:15:27.157Z,100468.53
2019-03-19T22:17:56.804Z,100469.63
2019-03-19T22:20:26.421Z,100473.78
2019-03-19T22:22:56.040Z,100478.31
2019-03-19T22:25:25.674Z,100481.40
2019-03-19T22:27:55.285Z,100484.21
2019-03-19T22:30:24.929Z,100483.55
2019-03-19T22:32:54.548Z,100490.95
2019-03-19T22:35:24.084Z,100496.70
2019-03-19T22:37:53.735Z,100497.72
2019-03-19T22:40:23.337Z,100497.93
2019-03-19T22:42:52.981Z,100499.37
2019-03-19T22:45:22.635Z,100502.03
2019-03-19T22:47:52.249Z,100505.61
2019-03-19T22:50:23.459Z,100504.91
2019-03-19T22:52:53.072Z,100512.20
2019-03-19T22:55:28.934Z,100506.80
2019-03-19T22:57:53.988Z,100515.18
2019-03-19T23:00:31.740Z,100521.84
2019-03-19T23:03:01.443Z,100522.23
2019-03-19T23:05:31.059Z,100528.48
2019-03-19T23:08:00.689Z,100523.77
2019-03-19T23:10:30.333Z,100519.91
2019-03-19T23:12:59.969Z,100529.37
2019-03-19T23:15:29.511Z,100533.50
2019-03-19T23:17:59.120Z,100537.48
2019-03-19T23:20:28.721Z,100539.47
2019-03-19T23:22:58.065Z,100545.71
2019-03-19T23:25:27.491Z,100533.30
2019-03-19T23:27:57.106Z,100534.70
2019-03-19T23:30:26.798Z,100531.61
2019-03-19T23:32:56.176Z,100531.64
2019-03-19T23:35:25.511Z,100543.81
2019-03-19T23:37:54.889Z,100535.05
2019-03-19T23:40:24.229Z,100539.92
2019-03-19T23:42:53.573Z,100548.20
2019-03-19T23:45:22.931Z,100541.87
2019-03-19T23:47:52.256Z,100542.48
2019-03-19T23:50:21.997Z,100543.55
2019-03-19T23:52:51.335Z,100541.28
2019-03-19T23:55:20.670Z,100545.12
2019-03-19T23:57:50.035Z,100541.13
